TimeCDT,TemperatureF,Dew PointF,Humidity,Sea Level PressureIn,VisibilityMPH,Wind Direction,Wind SpeedMPH,Gust SpeedMPH,PrecipitationIn,Events,Conditions,WindDirDegrees,DateUTC
12:53 AM,53.1,43.0,69,29.88,10.0,SSW,13.8,-,N/A,,Partly Cloudy,200,2013-10-21 05:53:00
1:53 AM,50.0,43.0,77,29.88,10.0,SSW,11.5,-,N/A,,Clear,200,2013-10-21 06:53:00
2:53 AM,50.0,43.0,77,29.89,10.0,SSW,11.5,-,N/A,,Clear,210,2013-10-21 07:53:00
3:53 AM,50.0,43.0,77,29.89,10.0,SW,9.2,-,N/A,,Clear,220,2013-10-21 08:53:00
4:53 AM,48.9,42.1,77,29.90,10.0,SW,8.1,-,N/A,,Clear,220,2013-10-21 09:53:00
5:53 AM,46.9,42.1,83,29.91,10.0,SW,8.1,-,N/A,,Clear,220,2013-10-21 10:53:00
6:53 AM,46.9,43.0,86,29.92,10.0,WSW,9.2,-,N/A,,Clear,240,2013-10-21 11:53:00
7:53 AM,48.0,43.0,83,29.94,10.0,WSW,6.9,-,N/A,,Mostly Cloudy,250,2013-10-21 12:53:00
8:53 AM,48.9,45.0,86,29.97,10.0,West,4.6,-,N/A,,Overcast,280,2013-10-21 13:53:00
9:53 AM,51.1,44.1,77,29.97,10.0,WNW,8.1,-,0.00,,Overcast,300,2013-10-21 14:53:00
10:53 AM,50.0,39.0,66,29.98,10.0,WNW,8.1,-,N/A,,Overcast,290,2013-10-21 15:53:00
11:53 AM,48.9,39.0,69,29.99,10.0,WNW,8.1,16.1,N/A,,Mostly Cloudy,300,2013-10-21 16:53:00
12:53 PM,52.0,37.9,59,29.98,10.0,West,13.8,-,N/A,,Mostly Cloudy,270,2013-10-21 17:53:00
1:53 PM,52.0,36.0,54,29.96,10.0,WNW,8.1,20.7,N/A,,Clear,290,2013-10-21 18:53:00
2:53 PM,52.0,35.1,53,29.96,10.0,WNW,9.2,18.4,N/A,,Mostly Cloudy,300,2013-10-21 19:53:00
3:53 PM,52.0,30.9,45,29.97,10.0,WNW,10.4,20.7,N/A,,Clear,300,2013-10-21 20:53:00
4:53 PM,50.0,32.0,50,29.99,10.0,West,10.4,19.6,N/A,,Partly Cloudy,270,2013-10-21 21:53:00
5:53 PM,46.9,30.0,52,30.00,10.0,West,11.5,18.4,N/A,,Clear,280,2013-10-21 22:53:00
6:53 PM,41.0,28.9,62,30.02,10.0,West,6.9,-,N/A,,Clear,270,2013-10-21 23:53:00
7:53 PM,37.9,28.0,68,30.04,10.0,WNW,5.8,-,N/A,,Clear,300,2013-10-22 00:53:00
8:53 PM,36.0,27.0,70,30.04,10.0,WNW,3.5,-,N/A,,Clear,290,2013-10-22 01:53:00
9:53 PM,33.1,27.0,78,30.05,10.0,WNW,3.5,-,N/A,,Clear,290,2013-10-22 02:53:00
10:53 PM,33.1,26.1,75,30.04,10.0,Calm,Calm,-,N/A,,Clear,0,2013-10-22 03:53:00
11:53 PM,30.0,25.0,82,30.04,10.0,SSW,3.5,-,N/A,,Clear,210,2013-10-22 04:53:00